sensor_id;sensor_type;location;lat;lon;timestamp;P1;durP1;ratioP1;P2;durP2;ratioP2
3549;SDS011;45572;48.804;8.330;2023-09-12T00:02:26;12.50;;;8.07;;
3549;SDS011;45572;48.804;8.330;2023-09-12T00:04:55;11.77;;;8.40;;
3549;SDS011;45572;48.804;8.330;2023-09-12T00:07:23;11.57;;;7.97;;
3549;SDS011;45572;48.804;8.330;2023-09-12T00:09:51;10.53;;;7.83;;
3549;SDS011;45572;48.804;8.330;2023-09-12T00:12:21;13.60;;;7.30;;
3549;SDS011;45572;48.804;8.330;2023-09-12T00:14:52;15.13;;;9.60;;
3549;SDS011;45572;48.804;8.330;2023-09-12T00:17:20;8.70;;;7.10;;
3549;SDS011;45572;48.804;8.330;2023-09-12T00:19:47;13.10;;;7.47;;
3549;SDS011;45572;48.804;8.330;2023-09-12T00:22:15;11.03;;;7.90;;
3549;SDS011;45572;48.804;8.330;2023-09-12T00:24:43;14.37;;;7.33;;
3549;SDS011;45572;48.804;8.330;2023-09-12T00:27:11;9.60;;;6.97;;
3549;SDS011;45572;48.804;8.330;2023-09-12T00:29:39;11.63;;;7.10;;
3549;SDS011;45572;48.804;8.330;2023-09-12T00:32:08;10.20;;;7.50;;
3549;SDS011;45572;48.804;8.330;2023-09-12T00:34:36;12.33;;;8.07;;
3549;SDS011;45572;48.804;8.330;2023-09-12T00:37:04;11.23;;;8.87;;
3549;SDS011;45572;48.804;8.330;2023-09-12T00:39:32;11.60;;;8.23;;
3549;SDS011;45572;48.804;8.330;2023-09-12T00:42:00;13.40;;;8.47;;
3549;SDS011;45572;48.804;8.330;2023-09-12T00:44:28;20.40;;;8.83;;
3549;SDS011;45572;48.804;8.330;2023-09-12T00:46:55;9.80;;;8.03;;
3549;SDS011;45572;48.804;8.330;2023-09-12T00:49:25;9.00;;;7.37;;
3549;SDS011;45572;48.804;8.330;2023-09-12T00:51:55;13.50;;;8.17;;
3549;SDS011;45572;48.804;8.330;2023-09-12T00:54:25;9.77;;;7.03;;
3549;SDS011;45572;48.804;8.330;2023-09-12T00:56:53;12.70;;;8.70;;
3549;SDS011;45572;48.804;8.330;2023-09-12T00:59:21;13.32;;;8.63;;
3549;SDS011;45572;48.804;8.330;2023-09-12T01:01:49;11.48;;;8.40;;
3549;SDS011;45572;48.804;8.330;2023-09-12T01:04:18;9.93;;;8.00;;
3549;SDS011;45572;48.804;8.330;2023-09-12T01:07:01;17.00;;;8.52;;
3549;SDS011;45572;48.804;8.330;2023-09-12T01:09:31;11.13;;;8.30;;
3549;SDS011;45572;48.804;8.330;2023-09-12T01:11:59;12.27;;;8.10;;
3549;SDS011;45572;48.804;8.330;2023-09-12T01:14:28;11.45;;;8.13;;
3549;SDS011;45572;48.804;8.330;2023-09-12T01:16:56;14.10;;;8.30;;
3549;SDS011;45572;48.804;8.330;2023-09-12T01:19:25;11.00;;;8.63;;
3549;SDS011;45572;48.804;8.330;2023-09-12T01:22:03;16.92;;;9.25;;
3549;SDS011;45572;48.804;8.330;2023-09-12T01:27:37;12.43;;;8.60;;
3549;SDS011;45572;48.804;8.330;2023-09-12T01:30:08;15.27;;;7.80;;
3549;SDS011;45572;48.804;8.330;2023-09-12T01:32:37;11.23;;;7.97;;
3549;SDS011;45572;48.804;8.330;2023-09-12T01:35:07;14.80;;;7.77;;
3549;SDS011;45572;48.804;8.330;2023-09-12T01:37:35;13.20;;;9.20;;
3549;SDS011;45572;48.804;8.330;2023-09-12T01:40:03;12.33;;;8.43;;
3549;SDS011;45572;48.804;8.330;2023-09-12T01:42:36;10.57;;;7.80;;
3549;SDS011;45572;48.804;8.330;2023-09-12T01:45:09;11.53;;;8.60;;
3549;SDS011;45572;48.804;8.330;2023-09-12T01:47:40;13.33;;;8.10;;
3549;SDS011;45572;48.804;8.330;2023-09-12T01:50:09;12.47;;;8.10;;
3549;SDS011;45572;48.804;8.330;2023-09-12T01:52:39;13.83;;;8.57;;
3549;SDS011;45572;48.804;8.330;2023-09-12T01:55:08;9.17;;;7.37;;
3549;SDS011;45572;48.804;8.330;2023-09-12T01:57:38;13.50;;;7.43;;
3549;SDS011;45572;48.804;8.330;2023-09-12T02:00:07;8.10;;;7.27;;
3549;SDS011;45572;48.804;8.330;2023-09-12T02:02:36;13.43;;;7.93;;
3549;SDS011;45572;48.804;8.330;2023-09-12T02:05:07;13.00;;;8.00;;
3549;SDS011;45572;48.804;8.330;2023-09-12T02:07:38;12.90;;;7.50;;
3549;SDS011;45572;48.804;8.330;2023-09-12T02:10:08;12.00;;;7.57;;
3549;SDS011;45572;48.804;8.330;2023-09-12T02:12:38;10.30;;;7.57;;
3549;SDS011;45572;48.804;8.330;2023-09-12T02:15:08;12.67;;;7.07;;
3549;SDS011;45572;48.804;8.330;2023-09-12T02:17:37;13.60;;;7.00;;
3549;SDS011;45572;48.804;8.330;2023-09-12T02:20:06;14.67;;;8.73;;
3549;SDS011;45572;48.804;8.330;2023-09-12T02:22:35;9.50;;;7.27;;
3549;SDS011;45572;48.804;8.330;2023-09-12T02:25:03;13.40;;;7.30;;
3549;SDS011;45572;48.804;8.330;2023-09-12T02:27:32;13.43;;;7.97;;
3549;SDS011;45572;48.804;8.330;2023-09-12T02:30:01;12.60;;;8.17;;
3549;SDS011;45572;48.804;8.330;2023-09-12T02:32:30;10.00;;;8.80;;
3549;SDS011;45572;48.804;8.330;2023-09-12T02:34:58;13.03;;;8.40;;
3549;SDS011;45572;48.804;8.330;2023-09-12T02:37:26;13.23;;;8.10;;
3549;SDS011;45572;48.804;8.330;2023-09-12T02:39:55;8.83;;;6.80;;
3549;SDS011;45572;48.804;8.330;2023-09-12T02:42:22;22.70;;;7.57;;
3549;SDS011;45572;48.804;8.330;2023-09-12T02:44:51;15.63;;;7.97;;
3549;SDS011;45572;48.804;8.330;2023-09-12T02:47:21;7.97;;;6.63;;
3549;SDS011;45572;48.804;8.330;2023-09-12T02:49:49;11.97;;;7.70;;
3549;SDS011;45572;48.804;8.330;2023-09-12T02:52:17;12.90;;;7.70;;
3549;SDS011;45572;48.804;8.330;2023-09-12T02:54:45;11.80;;;8.00;;
3549;SDS011;45572;48.804;8.330;2023-09-12T02:57:13;11.53;;;8.10;;
3549;SDS011;45572;48.804;8.330;2023-09-12T02:59:41;11.53;;;8.10;;
3549;SDS011;45572;48.804;8.330;2023-09-12T03:02:09;17.70;;;7.40;;
3549;SDS011;45572;48.804;8.330;2023-09-12T03:04:38;16.13;;;9.30;;
3549;SDS011;45572;48.804;8.330;2023-09-12T03:07:06;12.07;;;8.40;;
3549;SDS011;45572;48.804;8.330;2023-09-12T03:09:34;11.70;;;8.57;;
3549;SDS011;45572;48.804;8.330;2023-09-12T03:12:04;10.20;;;7.80;;
3549;SDS011;45572;48.804;8.330;2023-09-12T03:14:32;14.70;;;8.07;;
3549;SDS011;45572;48.804;8.330;2023-09-12T03:17:01;12.30;;;7.87;;
3549;SDS011;45572;48.804;8.330;2023-09-12T03:19:32;10.60;;;7.17;;
3549;SDS011;45572;48.804;8.330;2023-09-12T03:22:01;10.33;;;7.40;;
3549;SDS011;45572;48.804;8.330;2023-09-12T03:24:29;11.40;;;7.83;;
3549;SDS011;45572;48.804;8.330;2023-09-12T03:26:57;15.40;;;7.90;;
3549;SDS011;45572;48.804;8.330;2023-09-12T03:29:25;12.93;;;8.43;;
3549;SDS011;45572;48.804;8.330;2023-09-12T03:31:53;17.87;;;8.00;;
3549;SDS011;45572;48.804;8.330;2023-09-12T03:34:21;9.83;;;7.77;;
3549;SDS011;45572;48.804;8.330;2023-09-12T03:36:49;12.63;;;8.43;;
3549;SDS011;45572;48.804;8.330;2023-09-12T03:39:18;12.30;;;7.50;;
3549;SDS011;45572;48.804;8.330;2023-09-12T03:41:46;11.57;;;7.73;;
3549;SDS011;45572;48.804;8.330;2023-09-12T03:44:14;12.37;;;7.50;;
3549;SDS011;45572;48.804;8.330;2023-09-12T03:46:42;13.93;;;7.80;;
3549;SDS011;45572;48.804;8.330;2023-09-12T03:49:10;8.30;;;7.47;;
3549;SDS011;45572;48.804;8.330;2023-09-12T03:51:39;14.47;;;8.93;;
3549;SDS011;45572;48.804;8.330;2023-09-12T03:54:07;27.00;;;9.07;;
3549;SDS011;45572;48.804;8.330;2023-09-12T03:56:36;10.93;;;8.27;;
3549;SDS011;45572;48.804;8.330;2023-09-12T03:59:04;13.10;;;8.20;;
3549;SDS011;45572;48.804;8.330;2023-09-12T04:01:32;13.93;;;9.43;;
3549;SDS011;45572;48.804;8.330;2023-09-12T04:04:01;9.17;;;7.40;;
3549;SDS011;45572;48.804;8.330;2023-09-12T04:06:30;14.17;;;7.93;;
3549;SDS011;45572;48.804;8.330;2023-09-12T04:08:58;14.43;;;9.00;;
3549;SDS011;45572;48.804;8.330;2023-09-12T04:11:26;10.23;;;8.07;;
3549;SDS011;45572;48.804;8.330;2023-09-12T04:14:14;9.67;;;7.60;;
3549;SDS011;45572;48.804;8.330;2023-09-12T04:16:42;19.13;;;9.60;;
3549;SDS011;45572;48.804;8.330;2023-09-12T04:19:10;9.37;;;6.97;;
3549;SDS011;45572;48.804;8.330;2023-09-12T04:21:38;15.33;;;7.57;;
3549;SDS011;45572;48.804;8.330;2023-09-12T04:24:06;12.20;;;7.70;;
3549;SDS011;45572;48.804;8.330;2023-09-12T04:26:34;11.80;;;7.27;;
3549;SDS011;45572;48.804;8.330;2023-09-12T04:29:02;10.63;;;7.30;;
3549;SDS011;45572;48.804;8.330;2023-09-12T04:31:31;10.70;;;8.23;;
3549;SDS011;45572;48.804;8.330;2023-09-12T04:33:59;11.10;;;7.30;;
3549;SDS011;45572;48.804;8.330;2023-09-12T04:36:27;15.20;;;8.10;;
3549;SDS011;45572;48.804;8.330;2023-09-12T04:38:55;10.20;;;7.03;;
3549;SDS011;45572;48.804;8.330;2023-09-12T04:41:23;10.40;;;8.63;;
3549;SDS011;45572;48.804;8.330;2023-09-12T04:43:51;14.47;;;7.93;;
3549;SDS011;45572;48.804;8.330;2023-09-12T04:46:19;12.87;;;9.07;;
3549;SDS011;45572;48.804;8.330;2023-09-12T04:48:48;13.90;;;8.67;;
3549;SDS011;45572;48.804;8.330;2023-09-12T04:51:16;12.73;;;8.40;;
3549;SDS011;45572;48.804;8.330;2023-09-12T04:53:44;11.90;;;7.87;;
3549;SDS011;45572;48.804;8.330;2023-09-12T04:56:14;12.20;;;8.17;;
3549;SDS011;45572;48.804;8.330;2023-09-12T04:58:42;10.90;;;7.83;;
3549;SDS011;45572;48.804;8.330;2023-09-12T05:01:10;8.67;;;7.70;;
3549;SDS011;45572;48.804;8.330;2023-09-12T05:03:38;11.23;;;7.97;;
3549;SDS011;45572;48.804;8.330;2023-09-12T05:06:08;12.60;;;8.00;;
3549;SDS011;45572;48.804;8.330;2023-09-12T05:08:36;16.97;;;8.60;;
3549;SDS011;45572;48.804;8.330;2023-09-12T05:11:04;18.17;;;8.30;;
3549;SDS011;45572;48.804;8.330;2023-09-12T05:13:32;12.50;;;8.20;;
3549;SDS011;45572;48.804;8.330;2023-09-12T05:16:00;12.17;;;8.80;;
3549;SDS011;45572;48.804;8.330;2023-09-12T05:18:29;10.00;;;8.17;;
3549;SDS011;45572;48.804;8.330;2023-09-12T05:21:02;13.23;;;8.90;;
3549;SDS011;45572;48.804;8.330;2023-09-12T05:23:31;14.63;;;7.50;;
3549;SDS011;45572;48.804;8.330;2023-09-12T05:25:59;10.37;;;7.43;;
3549;SDS011;45572;48.804;8.330;2023-09-12T05:28:27;14.63;;;8.30;;
3549;SDS011;45572;48.804;8.330;2023-09-12T05:30:54;17.77;;;8.33;;
3549;SDS011;45572;48.804;8.330;2023-09-12T05:33:23;15.20;;;8.90;;
3549;SDS011;45572;48.804;8.330;2023-09-12T05:35:51;14.30;;;8.40;;
3549;SDS011;45572;48.804;8.330;2023-09-12T05:38:19;12.70;;;7.87;;
3549;SDS011;45572;48.804;8.330;2023-09-12T05:40:48;11.47;;;7.80;;
3549;SDS011;45572;48.804;8.330;2023-09-12T05:43:16;13.33;;;7.70;;
3549;SDS011;45572;48.804;8.330;2023-09-12T05:45:45;11.63;;;9.03;;
3549;SDS011;45572;48.804;8.330;2023-09-12T05:48:13;13.93;;;8.23;;
3549;SDS011;45572;48.804;8.330;2023-09-12T05:50:41;16.97;;;9.70;;
3549;SDS011;45572;48.804;8.330;2023-09-12T05:53:24;13.83;;;8.77;;
3549;SDS011;45572;48.804;8.330;2023-09-12T05:55:53;14.00;;;8.67;;
3549;SDS011;45572;48.804;8.330;2023-09-12T05:58:21;12.20;;;9.50;;
3549;SDS011;45572;48.804;8.330;2023-09-12T06:00:49;14.03;;;8.73;;
3549;SDS011;45572;48.804;8.330;2023-09-12T06:03:17;12.90;;;8.73;;
3549;SDS011;45572;48.804;8.330;2023-09-12T06:05:46;13.37;;;8.73;;
3549;SDS011;45572;48.804;8.330;2023-09-12T06:08:14;13.93;;;7.83;;
3549;SDS011;45572;48.804;8.330;2023-09-12T06:10:41;11.80;;;8.20;;
3549;SDS011;45572;48.804;8.330;2023-09-12T06:13:10;12.03;;;8.67;;
3549;SDS011;45572;48.804;8.330;2023-09-12T06:15:39;11.43;;;8.80;;
3549;SDS011;45572;48.804;8.330;2023-09-12T06:18:08;11.67;;;7.90;;
3549;SDS011;45572;48.804;8.330;2023-09-12T06:20:35;13.30;;;8.10;;
3549;SDS011;45572;48.804;8.330;2023-09-12T06:23:03;13.20;;;7.30;;
3549;SDS011;45572;48.804;8.330;2023-09-12T06:25:31;9.87;;;7.50;;
3549;SDS011;45572;48.804;8.330;2023-09-12T06:28:03;14.43;;;7.60;;
3549;SDS011;45572;48.804;8.330;2023-09-12T06:30:33;10.00;;;7.37;;
3549;SDS011;45572;48.804;8.330;2023-09-12T06:33:04;8.80;;;6.73;;
3549;SDS011;45572;48.804;8.330;2023-09-12T06:35:32;8.10;;;6.70;;
3549;SDS011;45572;48.804;8.330;2023-09-12T06:38:00;8.07;;;6.03;;
3549;SDS011;45572;48.804;8.330;2023-09-12T06:40:27;7.87;;;6.87;;
3549;SDS011;45572;48.804;8.330;2023-09-12T06:42:55;9.87;;;6.97;;
3549;SDS011;45572;48.804;8.330;2023-09-12T06:45:23;7.50;;;6.03;;
3549;SDS011;45572;48.804;8.330;2023-09-12T06:47:52;9.50;;;7.30;;
3549;SDS011;45572;48.804;8.330;2023-09-12T06:50:20;12.50;;;7.13;;
3549;SDS011;45572;48.804;8.330;2023-09-12T06:52:48;13.80;;;7.20;;
3549;SDS011;45572;48.804;8.330;2023-09-12T06:55:21;9.70;;;5.77;;
3549;SDS011;45572;48.804;8.330;2023-09-12T06:57:49;10.77;;;7.90;;
3549;SDS011;45572;48.804;8.330;2023-09-12T07:00:17;8.93;;;6.30;;
3549;SDS011;45572;48.804;8.330;2023-09-12T07:02:46;10.50;;;6.17;;
3549;SDS011;45572;48.804;8.330;2023-09-12T07:05:15;13.03;;;7.03;;
3549;SDS011;45572;48.804;8.330;2023-09-12T07:07:43;9.00;;;6.70;;
3549;SDS011;45572;48.804;8.330;2023-09-12T07:10:11;9.60;;;6.60;;
3549;SDS011;45572;48.804;8.330;2023-09-12T07:12:53;9.10;;;6.10;;
3549;SDS011;45572;48.804;8.330;2023-09-12T07:15:21;9.80;;;6.20;;
3549;SDS011;45572;48.804;8.330;2023-09-12T07:17:49;7.50;;;6.10;;
3549;SDS011;45572;48.804;8.330;2023-09-12T07:20:18;7.23;;;6.10;;
3549;SDS011;45572;48.804;8.330;2023-09-12T07:22:46;9.23;;;6.20;;
3549;SDS011;45572;48.804;8.330;2023-09-12T07:25:14;8.87;;;5.63;;
3549;SDS011;45572;48.804;8.330;2023-09-12T07:27:42;9.10;;;5.90;;
3549;SDS011;45572;48.804;8.330;2023-09-12T07:30:10;7.37;;;5.73;;
3549;SDS011;45572;48.804;8.330;2023-09-12T07:32:38;6.17;;;5.57;;
3549;SDS011;45572;48.804;8.330;2023-09-12T07:35:06;9.60;;;5.90;;
3549;SDS011;45572;48.804;8.330;2023-09-12T07:37:36;9.10;;;5.17;;
3549;SDS011;45572;48.804;8.330;2023-09-12T07:40:04;6.10;;;5.50;;
3549;SDS011;45572;48.804;8.330;2023-09-12T07:42:35;9.63;;;6.93;;
3549;SDS011;45572;48.804;8.330;2023-09-12T07:45:03;9.20;;;6.00;;
3549;SDS011;45572;48.804;8.330;2023-09-12T07:47:32;7.77;;;5.87;;
3549;SDS011;45572;48.804;8.330;2023-09-12T07:50:00;7.20;;;5.30;;
3549;SDS011;45572;48.804;8.330;2023-09-12T07:52:28;7.17;;;6.33;;
3549;SDS011;45572;48.804;8.330;2023-09-12T07:55:00;7.23;;;5.23;;
3549;SDS011;45572;48.804;8.330;2023-09-12T07:57:29;6.33;;;4.83;;
3549;SDS011;45572;48.804;8.330;2023-09-12T07:59:57;9.00;;;6.50;;
3549;SDS011;45572;48.804;8.330;2023-09-12T08:02:25;8.60;;;6.17;;
3549;SDS011;45572;48.804;8.330;2023-09-12T08:04:52;6.90;;;5.00;;
3549;SDS011;45572;48.804;8.330;2023-09-12T08:07:20;7.70;;;5.37;;
3549;SDS011;45572;48.804;8.330;2023-09-12T08:09:49;6.80;;;5.13;;
3549;SDS011;45572;48.804;8.330;2023-09-12T08:12:22;9.23;;;6.87;;
3549;SDS011;45572;48.804;8.330;2023-09-12T08:14:52;8.77;;;6.00;;
3549;SDS011;45572;48.804;8.330;2023-09-12T08:17:20;8.00;;;5.57;;
3549;SDS011;45572;48.804;8.330;2023-09-12T08:19:49;10.90;;;6.67;;
3549;SDS011;45572;48.804;8.330;2023-09-12T08:22:17;7.90;;;6.40;;
3549;SDS011;45572;48.804;8.330;2023-09-12T08:24:45;13.80;;;6.83;;
3549;SDS011;45572;48.804;8.330;2023-09-12T08:27:13;7.87;;;5.90;;
3549;SDS011;45572;48.804;8.330;2023-09-12T08:29:42;7.80;;;5.70;;
3549;SDS011;45572;48.804;8.330;2023-09-12T08:32:13;9.27;;;6.70;;
3549;SDS011;45572;48.804;8.330;2023-09-12T08:34:41;6.73;;;6.00;;
3549;SDS011;45572;48.804;8.330;2023-09-12T08:37:09;8.43;;;5.70;;
3549;SDS011;45572;48.804;8.330;2023-09-12T08:39:40;6.90;;;6.20;;
3549;SDS011;45572;48.804;8.330;2023-09-12T08:42:11;9.33;;;6.87;;
3549;SDS011;45572;48.804;8.330;2023-09-12T08:44:42;9.77;;;6.00;;
3549;SDS011;45572;48.804;8.330;2023-09-12T08:47:10;9.03;;;6.50;;
3549;SDS011;45572;48.804;8.330;2023-09-12T08:49:39;15.20;;;6.93;;
3549;SDS011;45572;48.804;8.330;2023-09-12T08:52:09;9.67;;;6.70;;
3549;SDS011;45572;48.804;8.330;2023-09-12T08:54:37;12.20;;;7.10;;
3549;SDS011;45572;48.804;8.330;2023-09-12T08:57:05;9.57;;;6.73;;
3549;SDS011;45572;48.804;8.330;2023-09-12T08:59:34;8.60;;;7.27;;
3549;SDS011;45572;48.804;8.330;2023-09-12T09:02:03;12.80;;;6.83;;
3549;SDS011;45572;48.804;8.330;2023-09-12T09:04:35;9.80;;;7.10;;
3549;SDS011;45572;48.804;8.330;2023-09-12T09:07:04;9.93;;;5.80;;
3549;SDS011;45572;48.804;8.330;2023-09-12T09:09:33;11.33;;;6.93;;
3549;SDS011;45572;48.804;8.330;2023-09-12T09:12:01;6.87;;;5.80;;
3549;SDS011;45572;48.804;8.330;2023-09-12T09:14:33;8.70;;;5.57;;
3549;SDS011;45572;48.804;8.330;2023-09-12T09:17:01;7.87;;;5.53;;
3549;SDS011;45572;48.804;8.330;2023-09-12T09:19:40;6.23;;;5.63;;
3549;SDS011;45572;48.804;8.330;2023-09-12T09:22:09;5.60;;;5.10;;
3549;SDS011;45572;48.804;8.330;2023-09-12T09:24:36;6.50;;;5.60;;
3549;SDS011;45572;48.804;8.330;2023-09-12T09:27:04;5.20;;;4.27;;
3549;SDS011;45572;48.804;8.330;2023-09-12T09:29:45;10.50;;;5.40;;
3549;SDS011;45572;48.804;8.330;2023-09-12T09:32:18;5.40;;;4.90;;
3549;SDS011;45572;48.804;8.330;2023-09-12T09:34:48;5.20;;;4.70;;
3549;SDS011;45572;48.804;8.330;2023-09-12T09:37:16;8.00;;;4.73;;
3549;SDS011;45572;48.804;8.330;2023-09-12T09:39:47;5.63;;;4.83;;
3549;SDS011;45572;48.804;8.330;2023-09-12T09:42:18;7.97;;;4.73;;
3549;SDS011;45572;48.804;8.330;2023-09-12T09:44:47;6.70;;;5.07;;
3549;SDS011;45572;48.804;8.330;2023-09-12T09:47:15;5.63;;;5.03;;
3549;SDS011;45572;48.804;8.330;2023-09-12T09:49:47;4.90;;;4.37;;
3549;SDS011;45572;48.804;8.330;2023-09-12T09:52:15;5.30;;;4.90;;
3549;SDS011;45572;48.804;8.330;2023-09-12T09:54:43;7.40;;;4.60;;
3549;SDS011;45572;48.804;8.330;2023-09-12T09:57:12;9.37;;;4.67;;
3549;SDS011;45572;48.804;8.330;2023-09-12T09:59:40;6.70;;;5.10;;
3549;SDS011;45572;48.804;8.330;2023-09-12T10:02:10;10.23;;;5.10;;
3549;SDS011;45572;48.804;8.330;2023-09-12T10:04:46;7.00;;;5.10;;
3549;SDS011;45572;48.804;8.330;2023-09-12T10:07:26;6.40;;;4.90;;
3549;SDS011;45572;48.804;8.330;2023-09-12T10:09:55;5.70;;;5.10;;
3549;SDS011;45572;48.804;8.330;2023-09-12T10:12:24;6.00;;;5.07;;
3549;SDS011;45572;48.804;8.330;2023-09-12T10:14:55;5.90;;;5.33;;
3549;SDS011;45572;48.804;8.330;2023-09-12T10:17:24;5.57;;;5.07;;
3549;SDS011;45572;48.804;8.330;2023-09-12T10:19:59;6.00;;;5.50;;
3549;SDS011;45572;48.804;8.330;2023-09-12T10:22:32;8.77;;;5.73;;
3549;SDS011;45572;48.804;8.330;2023-09-12T10:25:04;11.97;;;5.70;;
3549;SDS011;45572;48.804;8.330;2023-09-12T10:27:33;6.70;;;6.07;;
3549;SDS011;45572;48.804;8.330;2023-09-12T10:30:02;5.50;;;5.00;;
3549;SDS011;45572;48.804;8.330;2023-09-12T10:32:32;6.37;;;5.77;;
3549;SDS011;45572;48.804;8.330;2023-09-12T10:35:03;6.27;;;5.47;;
3549;SDS011;45572;48.804;8.330;2023-09-12T10:37:34;13.60;;;5.50;;
3549;SDS011;45572;48.804;8.330;2023-09-12T10:40:05;7.43;;;6.40;;
3549;SDS011;45572;48.804;8.330;2023-09-12T10:42:36;9.60;;;6.77;;
3549;SDS011;45572;48.804;8.330;2023-09-12T10:45:05;7.27;;;5.50;;
3549;SDS011;45572;48.804;8.330;2023-09-12T10:47:34;8.23;;;5.20;;
3549;SDS011;45572;48.804;8.330;2023-09-12T10:50:05;6.77;;;5.20;;
3549;SDS011;45572;48.804;8.330;2023-09-12T10:52:34;6.33;;;5.37;;
3549;SDS011;45572;48.804;8.330;2023-09-12T10:55:06;8.30;;;5.47;;
3549;SDS011;45572;48.804;8.330;2023-09-12T10:57:34;7.47;;;5.53;;
3549;SDS011;45572;48.804;8.330;2023-09-12T11:00:22;5.97;;;5.17;;
3549;SDS011;45572;48.804;8.330;2023-09-12T11:02:50;7.23;;;5.30;;
3549;SDS011;45572;48.804;8.330;2023-09-12T11:08:05;6.33;;;5.60;;
3549;SDS011;45572;48.804;8.330;2023-09-12T11:10:33;5.97;;;5.37;;
3549;SDS011;45572;48.804;8.330;2023-09-12T11:13:01;6.63;;;5.00;;
3549;SDS011;45572;48.804;8.330;2023-09-12T11:15:31;6.27;;;5.67;;
3549;SDS011;45572;48.804;8.330;2023-09-12T11:18:01;6.60;;;4.67;;
3549;SDS011;45572;48.804;8.330;2023-09-12T11:23:19;5.90;;;5.40;;
3549;SDS011;45572;48.804;8.330;2023-09-12T11:25:47;6.10;;;5.50;;
3549;SDS011;45572;48.804;8.330;2023-09-12T11:28:15;5.00;;;4.53;;
3549;SDS011;45572;48.804;8.330;2023-09-12T11:33:30;10.60;;;4.90;;
3549;SDS011;45572;48.804;8.330;2023-09-12T11:36:01;5.60;;;4.67;;
3549;SDS011;45572;48.804;8.330;2023-09-12T11:38:30;8.60;;;4.87;;
3549;SDS011;45572;48.804;8.330;2023-09-12T11:40:58;5.00;;;4.60;;
3549;SDS011;45572;48.804;8.330;2023-09-12T11:43:28;6.27;;;5.17;;
3549;SDS011;45572;48.804;8.330;2023-09-12T11:45:57;6.60;;;4.63;;
3549;SDS011;45572;48.804;8.330;2023-09-12T11:48:25;4.93;;;4.30;;
3549;SDS011;45572;48.804;8.330;2023-09-12T11:50:56;5.90;;;5.03;;
3549;SDS011;45572;48.804;8.330;2023-09-12T11:53:27;7.50;;;5.77;;
3549;SDS011;45572;48.804;8.330;2023-09-12T11:55:59;5.57;;;5.03;;
3549;SDS011;45572;48.804;8.330;2023-09-12T11:58:27;5.60;;;4.60;;
3549;SDS011;45572;48.804;8.330;2023-09-12T12:00:56;85.13;;;17.87;;
3549;SDS011;45572;48.804;8.330;2023-09-12T12:03:26;63.70;;;22.80;;
3549;SDS011;45572;48.804;8.330;2023-09-12T12:05:55;7.20;;;5.40;;
3549;SDS011;45572;48.804;8.330;2023-09-12T12:08:25;9.13;;;6.00;;
3549;SDS011;45572;48.804;8.330;2023-09-12T12:10:58;5.47;;;4.97;;
3549;SDS011;45572;48.804;8.330;2023-09-12T12:13:27;4.97;;;4.40;;
3549;SDS011;45572;48.804;8.330;2023-09-12T12:16:14;6.47;;;5.70;;
3549;SDS011;45572;48.804;8.330;2023-09-12T12:18:43;7.73;;;5.13;;
3549;SDS011;45572;48.804;8.330;2023-09-12T12:21:10;7.53;;;5.70;;
3549;SDS011;45572;48.804;8.330;2023-09-12T12:23:40;6.10;;;5.07;;
3549;SDS011;45572;48.804;8.330;2023-09-12T12:26:08;7.40;;;5.20;;
3549;SDS011;45572;48.804;8.330;2023-09-12T12:28:37;6.30;;;4.73;;
3549;SDS011;45572;48.804;8.330;2023-09-12T12:31:05;7.37;;;5.40;;
3549;SDS011;45572;48.804;8.330;2023-09-12T12:33:34;6.93;;;5.27;;
3549;SDS011;45572;48.804;8.330;2023-09-12T12:36:22;6.53;;;4.20;;
3549;SDS011;45572;48.804;8.330;2023-09-12T12:38:53;5.47;;;4.97;;
3549;SDS011;45572;48.804;8.330;2023-09-12T12:41:24;5.20;;;4.60;;
3549;SDS011;45572;48.804;8.330;2023-09-12T12:44:05;8.47;;;6.00;;
3549;SDS011;45572;48.804;8.330;2023-09-12T12:46:33;5.90;;;5.30;;
3549;SDS011;45572;48.804;8.330;2023-09-12T12:49:01;8.27;;;5.30;;
3549;SDS011;45572;48.804;8.330;2023-09-12T12:51:30;6.60;;;4.77;;
3549;SDS011;45572;48.804;8.330;2023-09-12T12:54:04;5.20;;;4.70;;
3549;SDS011;45572;48.804;8.330;2023-09-12T12:56:33;6.20;;;5.60;;
3549;SDS011;45572;48.804;8.330;2023-09-12T12:59:01;5.37;;;4.67;;
3549;SDS011;45572;48.804;8.330;2023-09-12T13:01:33;6.10;;;4.50;;
3549;SDS011;45572;48.804;8.330;2023-09-12T13:04:04;7.80;;;5.10;;
3549;SDS011;45572;48.804;8.330;2023-09-12T13:06:32;7.13;;;4.77;;
3549;SDS011;45572;48.804;8.330;2023-09-12T13:09:04;14.93;;;5.40;;
3549;SDS011;45572;48.804;8.330;2023-09-12T13:11:33;6.43;;;5.00;;
3549;SDS011;45572;48.804;8.330;2023-09-12T13:14:01;5.60;;;5.10;;
3549;SDS011;45572;48.804;8.330;2023-09-12T13:16:30;6.00;;;4.80;;
3549;SDS011;45572;48.804;8.330;2023-09-12T13:18:58;7.20;;;4.70;;
3549;SDS011;45572;48.804;8.330;2023-09-12T13:21:26;10.80;;;5.30;;
3549;SDS011;45572;48.804;8.330;2023-09-12T13:23:54;7.70;;;4.77;;
3549;SDS011;45572;48.804;8.330;2023-09-12T13:26:26;7.27;;;4.10;;
3549;SDS011;45572;48.804;8.330;2023-09-12T13:28:55;6.77;;;4.53;;
3549;SDS011;45572;48.804;8.330;2023-09-12T13:31:23;4.90;;;4.30;;
3549;SDS011;45572;48.804;8.330;2023-09-12T13:33:53;5.63;;;4.03;;
3549;SDS011;45572;48.804;8.330;2023-09-12T13:36:26;5.80;;;5.23;;
3549;SDS011;45572;48.804;8.330;2023-09-12T13:38:54;5.17;;;4.67;;
3549;SDS011;45572;48.804;8.330;2023-09-12T13:41:27;4.90;;;4.40;;
3549;SDS011;45572;48.804;8.330;2023-09-12T13:43:56;6.00;;;4.50;;
3549;SDS011;45572;48.804;8.330;2023-09-12T13:46:25;7.53;;;5.07;;
3549;SDS011;45572;48.804;8.330;2023-09-12T13:48:54;6.20;;;4.50;;
3549;SDS011;45572;48.804;8.330;2023-09-12T13:51:26;6.10;;;4.67;;
3549;SDS011;45572;48.804;8.330;2023-09-12T13:53:54;7.77;;;4.80;;
3549;SDS011;45572;48.804;8.330;2023-09-12T13:56:23;5.83;;;5.20;;
3549;SDS011;45572;48.804;8.330;2023-09-12T13:58:54;5.63;;;5.07;;
3549;SDS011;45572;48.804;8.330;2023-09-12T14:01:22;5.60;;;5.03;;
3549;SDS011;45572;48.804;8.330;2023-09-12T14:04:00;4.67;;;4.17;;
3549;SDS011;45572;48.804;8.330;2023-09-12T14:06:32;6.57;;;5.30;;
3549;SDS011;45572;48.804;8.330;2023-09-12T14:09:02;6.47;;;5.00;;
3549;SDS011;45572;48.804;8.330;2023-09-12T14:11:31;7.33;;;5.17;;
3549;SDS011;45572;48.804;8.330;2023-09-12T14:14:04;8.77;;;5.50;;
3549;SDS011;45572;48.804;8.330;2023-09-12T14:16:42;5.90;;;4.63;;
3549;SDS011;45572;48.804;8.330;2023-09-12T14:19:14;6.03;;;5.10;;
3549;SDS011;45572;48.804;8.330;2023-09-12T14:21:42;7.10;;;5.23;;
3549;SDS011;45572;48.804;8.330;2023-09-12T14:24:13;7.27;;;5.70;;
3549;SDS011;45572;48.804;8.330;2023-09-12T14:26:41;7.67;;;5.30;;
3549;SDS011;45572;48.804;8.330;2023-09-12T14:29:12;5.63;;;5.07;;
3549;SDS011;45572;48.804;8.330;2023-09-12T14:31:40;6.27;;;4.50;;
3549;SDS011;45572;48.804;8.330;2023-09-12T14:34:16;6.80;;;4.57;;
3549;SDS011;45572;48.804;8.330;2023-09-12T14:36:44;9.03;;;5.70;;
3549;SDS011;45572;48.804;8.330;2023-09-12T14:39:13;5.97;;;4.50;;
3549;SDS011;45572;48.804;8.330;2023-09-12T14:41:41;4.97;;;4.47;;
3549;SDS011;45572;48.804;8.330;2023-09-12T14:44:10;8.20;;;4.57;;
3549;SDS011;45572;48.804;8.330;2023-09-12T14:46:39;9.63;;;4.93;;
3549;SDS011;45572;48.804;8.330;2023-09-12T14:49:07;5.87;;;4.70;;
3549;SDS011;45572;48.804;8.330;2023-09-12T14:51:36;6.30;;;4.97;;
3549;SDS011;45572;48.804;8.330;2023-09-12T14:54:04;5.70;;;4.10;;
3549;SDS011;45572;48.804;8.330;2023-09-12T14:56:33;4.33;;;3.90;;
3549;SDS011;45572;48.804;8.330;2023-09-12T14:59:02;5.10;;;4.60;;
3549;SDS011;45572;48.804;8.330;2023-09-12T15:01:31;6.67;;;4.93;;
3549;SDS011;45572;48.804;8.330;2023-09-12T15:04:02;7.43;;;4.63;;
3549;SDS011;45572;48.804;8.330;2023-09-12T15:06:31;6.43;;;4.60;;
3549;SDS011;45572;48.804;8.330;2023-09-12T15:08:59;9.47;;;5.10;;
3549;SDS011;45572;48.804;8.330;2023-09-12T15:11:28;6.50;;;4.90;;
3549;SDS011;45572;48.804;8.330;2023-09-12T15:13:57;5.80;;;4.60;;
3549;SDS011;45572;48.804;8.330;2023-09-12T15:16:27;5.53;;;4.70;;
3549;SDS011;45572;48.804;8.330;2023-09-12T15:19:01;4.40;;;4.00;;
3549;SDS011;45572;48.804;8.330;2023-09-12T15:21:30;6.10;;;4.30;;